VTBU/UTP METAR and TAF weather

Enter ICAO airport designator
Station Type Date Time Source
VTBU METAR 2021/07/29 02:30 UTC NOAA

VTBU 290230Z 24011KT 9999 FEW020 31/25 Q1008 NOSIG


Station Type Date Time Source
VTBU Decoded METAR 2021/07/29 02:30 UTC NOAA

Rayong, Thailand (VTBU) 12-38N 101-21E 5M
Jul 28, 2021 - 10:30 PM EDT / 2021.07.29 0230 UTC
Wind: from the WSW (240 degrees) at 13 MPH (11 KT):0
Visibility: greater than 7 mile(s):0
Sky conditions: mostly clear
Temperature: 87 F (31 C)
Heat index: 97.5 F (36.4 C):1
Dew Point: 77 F (25 C)
Relative Humidity: 70%
Pressure (altimeter): 29.77 in. Hg (1008 hPa)
ob: VTBU 290230Z 24011KT 9999 FEW020 31/25 Q1008 NOSIG
cycle: 2

Station Type Date Time Source
VTBU TAF 2021/07/28 18:36 UTC NOAA

TAF VTBU 281700Z 2818/2918 24006KT 9999 FEW020
TEMPO 2903/2908 VRB14KT 5000 TSRA FEW018CB SCT030 BKN100

Example: see airport list